This demonstration page uses our WeatherBlox Daily Observations layout. Learn more.

Left ArrowRight Arrow

Hourly Observations for May 28, 2020

Temp ( °F °C ) Dew Point ( °F °C ) Humidity (%) Winds ( mph kmh ) Pressure ( in mb ) Visibility ( mi km ) Precip ( " mm )
12:51 am 00:51 Clear 77 25 29 -1.7 17 17 NW 10 17 29.73 1007 10 16.0934 0 0
1:51 am 01:51 Clear 77 25 29 -1.7 17 17 NW 9 15 29.72 1007 10 16.0934 0 0
2:51 am 02:51 Clear 77 25 30 -1.1 18 18 Calm 29.73 1007 10 16.0934 0 0
3:51 am 03:51 Clear 75 23.9 29 -1.7 18 18 WNW 8 13 29.75 1008 10 16.0934 0 0
4:51 am 04:51 Clear 73 22.8 29 -1.7 19 19 SE 5 7 29.77 1008 10 16.0934 0 0
5:51 am 05:51 Sunny 68 20 28 -2.2 22 22 E 3 6 29.8 1009 10 16.0934 0 0
6:51 am 06:51 Sunny 76 24.4 30 -1.1 18 18 SE 5 7 29.81 1010 10 16.0934 0 0
7:51 am 07:51 Sunny 82 27.8 31 -0.6 16 16 SSE 5 7 29.81 1010 10 16.0934 0 0
8:51 am 08:51 Sunny 91 32.8 31 -0.6 12 12 NW 16 26 29.8 1009 10 16.0934 0 0
9:51 am 09:51 Sunny 95 35 30 -1.1 10 10 WNW 17 28 29.8 1009 10 16.0934 0 0
10:51 am 10:51 Sunny 98 36.7 31 -0.6 9 9 NW 16 26 29.79 1009 10 16.0934 0 0
11:51 am 11:51 Sunny 100 37.8 31 -0.6 9 9 W 10 17 29.78 1008 10 16.0934 0 0
12:51 pm 12:51 Sunny 103 39.4 32 0 8 8 WNW 15 24 29.75 1008 10 16.0934 0 0
1:51 pm 13:51 Sunny 102 38.9 32 0 9 9 NNW 12 19 29.73 1007 10 16.0934 0 0
2:51 pm 14:51 Sunny 103 39.4 31 -0.6 8 8 NW 13 20 29.71 1006 10 16.0934 0 0
3:51 pm 15:51 Sunny 103 39.4 30 -1.1 8 8 VRB 5 7 29.71 1006 10 16.0934 0 0
4:51 pm 16:51 Sunny 104 40 31 -0.6 8 8 W 16 26 29.7 1006 10 16.0934 0 0
5:51 pm 17:51 Sunny 103 39.4 32 0 8 8 NW 13 20 29.71 1006 10 16.0934 0 0
6:51 pm 18:51 Sunny 100 37.8 33 0.6 10 10 WNW 13 20 29.73 1007 10 16.0934 0 0
7:51 pm 19:51 Clear 95 35 38 3.3 14 14 ENE 10 17 29.77 1008 10 16.0934 0 0
8:51 pm 20:51 Clear 91 32.8 38 3.3 15 15 NNE 3 6 29.78 1008 10 16.0934 0 0
9:51 pm 21:51 Clear 91 32.8 38 3.3 15 15 NNW 5 7 29.79 1009 10 16.0934 0 0
10:51 pm 22:51 Clear 86 30 38 3.3 18 18 NW 5 7 29.8 1009 10 16.0934 0 0
11:51 pm 23:51 Clear 85 29.4 36 2.2 17 17 NW 5 7 29.79 1009 10 16.0934 0 0

Powered by AerisWeather